createdAt,value
2022-11-05T00:02:50.908Z,7.10
2022-11-05T00:07:38.882Z,7.10
2022-11-05T00:12:29.158Z,7.10
2022-11-05T00:16:54.335Z,7.10
2022-11-05T00:21:38.032Z,7.00
2022-11-05T00:26:09.766Z,7.00
2022-11-05T00:30:34.974Z,7.00
2022-11-05T00:35:00.285Z,6.90
2022-11-05T00:39:25.677Z,6.90
2022-11-05T00:44:09.303Z,6.90
2022-11-05T00:48:53.066Z,6.90
2022-11-05T00:53:18.378Z,6.90
2022-11-05T00:57:43.587Z,7.00
2022-11-05T01:02:08.934Z,7.00
2022-11-05T01:06:34.318Z,7.00
2022-11-05T01:10:59.721Z,7.00
2022-11-05T01:15:25.013Z,7.00
2022-11-05T01:19:50.234Z,7.00
2022-11-05T01:24:15.494Z,7.00
2022-11-05T01:28:40.956Z,7.10
2022-11-05T01:33:06.428Z,7.00
2022-11-05T01:37:31.739Z,7.00
2022-11-05T01:41:58.778Z,7.00
2022-11-05T01:46:41.201Z,7.00
2022-11-05T01:51:14.982Z,7.00
2022-11-05T01:55:55.707Z,7.00
2022-11-05T02:00:21.001Z,6.90
2022-11-05T02:04:54.009Z,6.80
2022-11-05T02:10:06.812Z,6.80
2022-11-05T02:14:32.007Z,6.80
2022-11-05T02:19:34.766Z,6.80
2022-11-05T02:24:21.435Z,6.80
2022-11-05T02:29:07.973Z,6.70
2022-11-05T02:34:02.855Z,6.60
2022-11-05T02:39:26.646Z,6.60
2022-11-05T02:44:06.601Z,6.50
2022-11-05T02:49:29.444Z,6.50
2022-11-05T02:54:23.312Z,6.50
2022-11-05T02:58:48.901Z,6.50
2022-11-05T03:03:35.237Z,6.50
2022-11-05T03:08:14.432Z,6.50
2022-11-05T03:13:02.376Z,6.40
2022-11-05T03:17:58.415Z,6.40
2022-11-05T03:22:49.752Z,6.40
2022-11-05T03:27:20.621Z,6.40
2022-11-05T03:31:49.389Z,6.40
2022-11-05T03:36:23.644Z,6.40
2022-11-05T03:40:52.776Z,6.40
2022-11-05T03:45:29.123Z,6.30
2022-11-05T03:50:57.020Z,6.30
2022-11-05T03:55:34.065Z,6.40
2022-11-05T03:59:59.318Z,6.30
2022-11-05T04:04:25.242Z,6.30
2022-11-05T04:09:09.217Z,6.30
2022-11-05T04:13:34.580Z,6.30
2022-11-05T04:17:59.764Z,6.30
2022-11-05T04:22:46.568Z,6.30
2022-11-05T04:27:11.750Z,6.30
2022-11-05T04:31:37.934Z,6.30
2022-11-05T04:36:03.123Z,6.20
2022-11-05T04:40:28.983Z,6.20
2022-11-05T04:44:54.283Z,6.20
2022-11-05T04:49:19.488Z,6.20
2022-11-05T04:53:44.758Z,6.20
2022-11-05T04:58:09.981Z,6.20
2022-11-05T05:02:36.297Z,6.20
2022-11-05T05:07:01.508Z,6.10
2022-11-05T05:11:26.729Z,6.10
2022-11-05T05:15:51.965Z,6.10
2022-11-05T05:20:36.080Z,6.00
2022-11-05T05:25:01.312Z,6.00
2022-11-05T05:29:26.568Z,6.00
2022-11-05T05:33:55.398Z,6.00
2022-11-05T05:38:20.566Z,5.90
2022-11-05T05:42:45.785Z,5.90
2022-11-05T05:47:11.042Z,5.90
2022-11-05T05:51:36.266Z,5.80
2022-11-05T05:56:03.497Z,5.80
2022-11-05T06:00:28.702Z,5.80
2022-11-05T06:04:53.929Z,5.70
2022-11-05T06:09:19.204Z,5.70
2022-11-05T06:13:44.459Z,5.70
2022-11-05T06:18:09.692Z,5.60
2022-11-05T06:22:34.937Z,5.60
2022-11-05T06:27:00.275Z,5.60
2022-11-05T06:31:25.966Z,5.60
2022-11-05T06:35:51.730Z,5.60
2022-11-05T06:40:16.998Z,5.60
2022-11-05T06:44:42.174Z,5.60
2022-11-05T06:49:07.995Z,5.50
2022-11-05T06:53:34.449Z,5.50
2022-11-05T06:57:59.649Z,5.50
2022-11-05T07:02:24.881Z,5.50
2022-11-05T07:06:50.178Z,5.50
2022-11-05T07:11:15.398Z,5.50
2022-11-05T07:15:40.597Z,5.50
2022-11-05T07:20:07.784Z,5.50
2022-11-05T07:24:32.990Z,5.50
2022-11-05T07:28:58.429Z,5.50
2022-11-05T07:33:23.660Z,5.50
2022-11-05T07:37:52.135Z,5.60
2022-11-05T07:42:17.362Z,5.60
2022-11-05T07:46:42.633Z,5.70
2022-11-05T07:51:07.882Z,5.80
2022-11-05T07:55:33.907Z,5.90
2022-11-05T07:59:59.144Z,5.90
2022-11-05T08:04:24.500Z,6.00
2022-11-05T08:08:49.766Z,6.10
2022-11-05T08:13:15.710Z,6.20
2022-11-05T08:17:42.074Z,6.20
2022-11-05T08:22:07.748Z,6.30
2022-11-05T08:26:33.028Z,6.40
2022-11-05T08:30:58.673Z,6.50
2022-11-05T08:35:24.082Z,6.60
2022-11-05T08:39:49.378Z,6.80
2022-11-05T08:44:14.610Z,6.90
2022-11-05T08:48:40.340Z,7.10
2022-11-05T08:53:07.499Z,7.30
2022-11-05T08:57:32.840Z,7.50
2022-11-05T09:01:58.295Z,7.60
2022-11-05T09:06:23.715Z,7.80
2022-11-05T09:10:49.935Z,7.90
2022-11-05T09:15:15.367Z,8.10
2022-11-05T09:19:40.627Z,8.20
2022-11-05T09:24:06.305Z,8.40
2022-11-05T09:28:32.740Z,8.50
2022-11-05T09:32:57.983Z,8.70
2022-11-05T09:37:23.225Z,8.80
2022-11-05T09:41:49.095Z,8.90
2022-11-05T09:46:43.032Z,9.10
2022-11-05T09:51:12.150Z,9.30
2022-11-05T09:55:42.621Z,9.40
2022-11-05T10:00:16.466Z,9.60
2022-11-05T10:04:45.188Z,9.70
2022-11-05T10:09:20.675Z,9.90
2022-11-05T10:13:58.944Z,10.00
2022-11-05T10:18:38.182Z,10.10
2022-11-05T10:23:16.125Z,10.30
2022-11-05T10:27:48.188Z,10.40
2022-11-05T10:32:27.887Z,10.60
2022-11-05T10:36:54.395Z,10.70
2022-11-05T10:41:57.418Z,10.90
2022-11-05T10:46:35.007Z,11.10
2022-11-05T10:51:01.296Z,11.20
2022-11-05T10:55:37.100Z,11.30
2022-11-05T11:00:18.031Z,11.50
2022-11-05T11:04:43.685Z,11.60
2022-11-05T11:09:25.150Z,11.70
2022-11-05T11:14:19.169Z,11.80
2022-11-05T11:18:44.664Z,11.90
2022-11-05T11:23:17.679Z,11.90
2022-11-05T11:27:42.936Z,12.10
2022-11-05T11:32:19.102Z,12.20
2022-11-05T11:36:49.063Z,12.20
2022-11-05T11:41:39.785Z,12.30
2022-11-05T11:46:15.207Z,12.30
2022-11-05T11:50:44.137Z,12.30
2022-11-05T11:55:12.387Z,12.40
2022-11-05T12:05:10.964Z,12.60
2022-11-05T12:10:11.482Z,12.70
2022-11-05T12:15:23.361Z,12.80
2022-11-05T12:20:27.677Z,12.90
2022-11-05T12:25:05.893Z,13.00
2022-11-05T12:30:07.204Z,13.10
2022-11-05T12:34:50.589Z,13.20
2022-11-05T12:39:49.204Z,13.20
2022-11-05T12:45:05.982Z,13.20
2022-11-05T12:50:10.574Z,13.30
2022-11-05T12:54:56.720Z,13.30
2022-11-05T12:59:32.613Z,13.30
2022-11-05T13:04:08.836Z,13.40
2022-11-05T13:08:44.982Z,13.40
2022-11-05T13:13:43.079Z,13.50
2022-11-05T13:18:19.139Z,13.50
2022-11-05T13:22:49.280Z,13.60
2022-11-05T13:28:02.637Z,13.70
2022-11-05T13:32:36.621Z,13.80
2022-11-05T13:37:23.917Z,13.80
2022-11-05T13:42:36.641Z,13.90
2022-11-05T13:47:22.926Z,14.00
2022-11-05T13:51:51.479Z,14.00
2022-11-05T13:56:47.456Z,14.10
2022-11-05T14:01:17.793Z,14.10
2022-11-05T14:05:43.890Z,14.10
2022-11-05T14:10:36.296Z,14.10
2022-11-05T14:15:28.168Z,14.10
2022-11-05T14:20:07.609Z,14.10
2022-11-05T14:24:43.222Z,13.90
2022-11-05T14:29:23.342Z,13.80
2022-11-05T14:34:16.976Z,13.80
2022-11-05T14:38:53.074Z,13.70
2022-11-05T14:43:24.828Z,13.60
2022-11-05T14:47:55.596Z,13.50
2022-11-05T14:52:21.919Z,13.50
2022-11-05T14:57:02.131Z,13.40
2022-11-05T15:01:56.506Z,13.20
2022-11-05T15:06:35.528Z,13.20
2022-11-05T15:11:19.952Z,13.00
2022-11-05T15:15:50.711Z,12.90
2022-11-05T15:20:27.036Z,12.80
2022-11-05T15:24:52.519Z,12.70
2022-11-05T15:29:22.328Z,12.60
2022-11-05T15:33:48.466Z,12.50
2022-11-05T15:38:36.129Z,12.40
2022-11-05T15:43:11.019Z,12.40
2022-11-05T15:47:36.553Z,12.20
2022-11-05T15:52:02.092Z,12.10
2022-11-05T15:56:34.071Z,12.00
2022-11-05T16:00:59.580Z,11.90
2022-11-05T16:05:29.536Z,11.90
2022-11-05T16:10:01.453Z,11.80
2022-11-05T16:14:35.356Z,11.70
2022-11-05T16:19:01.093Z,11.60
2022-11-05T16:23:59.390Z,11.50
2022-11-05T16:28:28.639Z,11.50
2022-11-05T16:32:54.438Z,11.40
2022-11-05T16:37:23.173Z,11.30
2022-11-05T16:41:48.563Z,11.20
2022-11-05T16:46:15.462Z,11.10
2022-11-05T16:50:42.278Z,11.10
2022-11-05T16:55:08.704Z,11.00
2022-11-05T16:59:34.453Z,10.90
2022-11-05T17:03:59.727Z,10.90
2022-11-05T17:08:24.937Z,10.80
2022-11-05T17:12:51.009Z,10.80
2022-11-05T17:17:16.230Z,10.80
2022-11-05T17:21:42.024Z,10.70
2022-11-05T17:26:11.090Z,10.70
2022-11-05T17:30:39.401Z,10.70
2022-11-05T17:35:08.343Z,10.60
2022-11-05T17:39:33.530Z,10.60
2022-11-05T17:43:58.846Z,10.50
2022-11-05T17:48:24.061Z,10.50
2022-11-05T17:52:49.296Z,10.50
2022-11-05T17:57:14.598Z,10.50
2022-11-05T18:01:43.776Z,10.50
2022-11-05T18:06:09.171Z,10.50
2022-11-05T18:10:38.094Z,10.50
2022-11-05T18:15:03.930Z,10.40
2022-11-05T18:19:29.693Z,10.40
2022-11-05T18:23:54.959Z,10.40
2022-11-05T18:28:21.229Z,10.40
2022-11-05T18:32:47.689Z,10.30
2022-11-05T18:37:12.968Z,10.30
2022-11-05T18:41:38.605Z,10.30
2022-11-05T18:46:03.969Z,10.20
2022-11-05T18:50:30.242Z,10.20
2022-11-05T18:54:55.508Z,10.20
2022-11-05T18:59:39.057Z,10.20
2022-11-05T19:04:05.283Z,10.10
2022-11-05T19:08:34.472Z,10.10
2022-11-05T19:12:59.807Z,10.10
2022-11-05T19:17:25.140Z,10.10
2022-11-05T19:21:51.176Z,10.10
2022-11-05T19:26:24.168Z,10.10
2022-11-05T19:30:52.561Z,10.00
2022-11-05T19:35:17.888Z,10.10
2022-11-05T19:39:43.856Z,10.00
2022-11-05T19:44:09.226Z,10.00
2022-11-05T19:48:34.888Z,10.00
2022-11-05T19:53:00.328Z,10.00
2022-11-05T19:57:25.534Z,10.00
2022-11-05T20:01:50.966Z,9.90
2022-11-05T20:06:31.967Z,10.00
2022-11-05T20:10:57.367Z,9.90
2022-11-05T20:15:22.676Z,9.90
2022-11-05T20:19:47.885Z,9.90
2022-11-05T20:24:23.331Z,9.90
2022-11-05T20:28:49.415Z,9.90
2022-11-05T20:33:14.656Z,9.90
2022-11-05T20:37:39.926Z,9.90
2022-11-05T20:42:05.295Z,9.80
2022-11-05T20:46:30.511Z,9.90
2022-11-05T20:50:55.703Z,9.80
2022-11-05T20:55:20.969Z,9.80
2022-11-05T20:59:46.403Z,9.80
2022-11-05T21:04:11.665Z,9.80
2022-11-05T21:08:37.039Z,9.80
2022-11-05T21:13:02.421Z,9.70
2022-11-05T21:17:27.734Z,9.70
2022-11-05T21:21:53.005Z,9.70
2022-11-05T21:26:18.653Z,9.70
2022-11-05T21:30:46.408Z,9.70
2022-11-05T21:35:11.622Z,9.70
2022-11-05T21:39:36.965Z,9.60
2022-11-05T21:44:04.184Z,9.60
2022-11-05T21:48:30.036Z,9.60
2022-11-05T21:53:13.652Z,9.60
2022-11-05T21:57:58.275Z,9.60
2022-11-05T22:02:25.584Z,9.50
2022-11-05T22:06:50.972Z,9.50
2022-11-05T22:11:16.184Z,9.50
2022-11-05T22:15:41.573Z,9.50
2022-11-05T22:20:08.352Z,9.40
2022-11-05T22:24:35.169Z,9.40
2022-11-05T22:29:00.497Z,9.30
2022-11-05T22:33:25.787Z,9.30
2022-11-05T22:37:51.175Z,9.30
2022-11-05T22:42:16.535Z,9.20
2022-11-05T22:46:42.009Z,9.20
2022-11-05T22:51:11.998Z,9.10
2022-11-05T22:55:40.287Z,9.10
2022-11-05T23:00:15.511Z,9.10
2022-11-05T23:04:40.747Z,9.10
2022-11-05T23:09:33.356Z,9.10
2022-11-05T23:13:58.568Z,9.10
2022-11-05T23:18:42.362Z,9.00
2022-11-05T23:23:31.174Z,9.10
2022-11-05T23:27:57.179Z,9.10
2022-11-05T23:32:25.038Z,9.00
2022-11-05T23:37:08.601Z,9.00
2022-11-05T23:41:52.358Z,9.00
2022-11-05T23:46:35.805Z,9.00
2022-11-05T23:51:04.929Z,9.00
2022-11-05T23:55:30.813Z,9.00
2022-11-05T23:59:56.012Z,9.00
